Ruma, Illinois
Current Conditions -  °F | °C
As of 1:55 AM on Monday 24 Nov 2014 (Local Time) from KSAR Reporting Station
Overcast Overcast  
Wind Chill: 55°   Ceiling: 7000
Heat Index: 55°   Visibility: 10mi
Dew Point: 53°   Wind: 10mph
Humidity: 92%   Direction: 220°SW
Pressure: 29.22"   Gusts: 16mph
Location:  38.1575°N, 89.9813°W
Report Text: KSAR 240755Z AUTO 22009G14KT 10SM SCT028 BKN070 OVC080 13/12 A2922 RMK AO2 LTG DSNT S P0001 T01270115
Loading
Personal Weather Stations






























Interactive Weather Map New forecast layout! Learn more

10-Day Weather Forecast

Advertisements
Track Severe Weather on mobile